sensor_id;sensor_type;location;lat;lon;timestamp;pressure;altitude;pressure_sealevel;temperature;humidity
38452;BME280;24231;52.514;13.438;2023-01-20T00:03:01;100446.50;;;6.15;52.59
38452;BME280;24231;52.514;13.438;2023-01-20T00:05:28;100448.10;;;7.42;50.83
38452;BME280;24231;52.514;13.438;2023-01-20T00:07:56;100453.34;;;6.88;52.50
38452;BME280;24231;52.514;13.438;2023-01-20T00:10:22;100460.73;;;5.16;57.54
38452;BME280;24231;52.514;13.438;2023-01-20T00:12:50;100461.23;;;5.77;55.35
38452;BME280;24231;52.514;13.438;2023-01-20T00:15:17;100461.57;;;5.00;57.38
38452;BME280;24231;52.514;13.438;2023-01-20T00:17:44;100468.09;;;5.99;55.21
38452;BME280;24231;52.514;13.438;2023-01-20T00:20:11;100464.06;;;6.87;52.93
38452;BME280;24231;52.514;13.438;2023-01-20T00:22:38;100471.61;;;6.43;53.79
38452;BME280;24231;52.514;13.438;2023-01-20T00:25:06;100470.83;;;4.47;59.07
38452;BME280;24231;52.514;13.438;2023-01-20T00:27:33;100471.84;;;5.01;59.19
38452;BME280;24231;52.514;13.438;2023-01-20T00:30:01;100474.45;;;3.37;63.32
38452;BME280;24231;52.514;13.438;2023-01-20T00:32:28;100470.68;;;4.92;59.22
38452;BME280;24231;52.514;13.438;2023-01-20T00:34:55;100477.72;;;4.00;61.42
38452;BME280;24231;52.514;13.438;2023-01-20T00:37:21;100479.72;;;3.92;61.79
38452;BME280;24231;52.514;13.438;2023-01-20T00:39:48;100478.45;;;4.80;59.54
38452;BME280;24231;52.514;13.438;2023-01-20T00:42:15;100481.85;;;4.31;60.89
38452;BME280;24231;52.514;13.438;2023-01-20T00:44:42;100486.55;;;4.14;61.31
38452;BME280;24231;52.514;13.438;2023-01-20T00:47:09;100489.07;;;3.48;63.39
38452;BME280;24231;52.514;13.438;2023-01-20T00:49:37;100490.03;;;3.47;63.32
38452;BME280;24231;52.514;13.438;2023-01-20T00:52:04;100497.00;;;4.50;61.14
38452;BME280;24231;52.514;13.438;2023-01-20T00:54:31;100494.98;;;4.65;59.54
38452;BME280;24231;52.514;13.438;2023-01-20T00:56:58;100498.67;;;4.15;59.72
38452;BME280;24231;52.514;13.438;2023-01-20T00:59:25;100496.96;;;4.91;58.81
38452;BME280;24231;52.514;13.438;2023-01-20T01:01:52;100500.07;;;4.83;58.63
38452;BME280;24231;52.514;13.438;2023-01-20T01:04:19;100507.20;;;4.22;60.59
38452;BME280;24231;52.514;13.438;2023-01-20T01:06:48;100513.09;;;3.01;64.23
38452;BME280;24231;52.514;13.438;2023-01-20T01:09:16;100515.28;;;3.21;64.22
38452;BME280;24231;52.514;13.438;2023-01-20T01:11:43;100520.61;;;3.97;62.15
38452;BME280;24231;52.514;13.438;2023-01-20T01:14:10;100528.15;;;2.39;67.57
38452;BME280;24231;52.514;13.438;2023-01-20T01:16:37;100523.43;;;4.24;60.94
38452;BME280;24231;52.514;13.438;2023-01-20T01:19:10;100523.87;;;5.09;57.91
38452;BME280;24231;52.514;13.438;2023-01-20T01:21:37;100522.68;;;4.77;58.97
38452;BME280;24231;52.514;13.438;2023-01-20T01:24:04;100516.29;;;5.41;56.93
38452;BME280;24231;52.514;13.438;2023-01-20T01:26:32;100522.03;;;3.87;62.16
38452;BME280;24231;52.514;13.438;2023-01-20T01:28:59;100526.85;;;3.79;61.85
38452;BME280;24231;52.514;13.438;2023-01-20T01:31:26;100522.56;;;4.24;60.50
38452;BME280;24231;52.514;13.438;2023-01-20T01:33:53;100529.19;;;4.59;59.67
38452;BME280;24231;52.514;13.438;2023-01-20T01:36:21;100537.19;;;2.71;64.98
38452;BME280;24231;52.514;13.438;2023-01-20T01:38:47;100538.04;;;2.19;68.41
38452;BME280;24231;52.514;13.438;2023-01-20T01:41:16;100536.78;;;3.08;65.72
38452;BME280;24231;52.514;13.438;2023-01-20T01:44:00;100537.04;;;3.93;61.54
38452;BME280;24231;52.514;13.438;2023-01-20T01:46:27;100533.40;;;3.54;62.48
38452;BME280;24231;52.514;13.438;2023-01-20T01:48:56;100534.93;;;3.70;62.15
38452;BME280;24231;52.514;13.438;2023-01-20T01:51:28;100537.06;;;4.58;59.33
38452;BME280;24231;52.514;13.438;2023-01-20T01:53:59;100541.40;;;4.65;59.20
38452;BME280;24231;52.514;13.438;2023-01-20T01:56:30;100538.34;;;5.12;57.06
38452;BME280;24231;52.514;13.438;2023-01-20T01:59:00;100547.62;;;4.77;57.64
38452;BME280;24231;52.514;13.438;2023-01-20T02:01:29;100555.04;;;4.66;57.53
38452;BME280;24231;52.514;13.438;2023-01-20T02:04:02;100555.69;;;4.52;57.80
38452;BME280;24231;52.514;13.438;2023-01-20T02:06:32;100559.09;;;4.26;58.44
38452;BME280;24231;52.514;13.438;2023-01-20T02:09:01;100563.60;;;3.00;62.59
38452;BME280;24231;52.514;13.438;2023-01-20T02:11:29;100571.41;;;2.97;65.97
38452;BME280;24231;52.514;13.438;2023-01-20T02:13:57;100569.13;;;3.62;62.36
38452;BME280;24231;52.514;13.438;2023-01-20T02:16:35;100573.64;;;4.14;60.43
38452;BME280;24231;52.514;13.438;2023-01-20T02:19:24;100579.61;;;3.15;62.91
38452;BME280;24231;52.514;13.438;2023-01-20T02:22:05;100575.40;;;3.66;61.09
38452;BME280;24231;52.514;13.438;2023-01-20T02:26:23;100578.83;;;4.31;59.23
38452;BME280;24231;52.514;13.438;2023-01-20T02:29:12;100585.35;;;4.70;57.27
38452;BME280;24231;52.514;13.438;2023-01-20T02:32:22;100593.12;;;4.33;58.47
38452;BME280;24231;52.514;13.438;2023-01-20T02:34:55;100600.57;;;4.16;58.83
38452;BME280;24231;52.514;13.438;2023-01-20T02:37:27;100605.93;;;5.35;55.64
38452;BME280;24231;52.514;13.438;2023-01-20T02:40:05;100619.45;;;3.11;62.06
38452;BME280;24231;52.514;13.438;2023-01-20T02:42:37;100617.72;;;4.70;58.03
38452;BME280;24231;52.514;13.438;2023-01-20T02:45:14;100618.81;;;5.47;55.04
38452;BME280;24231;52.514;13.438;2023-01-20T02:47:49;100624.87;;;5.16;55.37
38452;BME280;24231;52.514;13.438;2023-01-20T02:50:22;100629.21;;;5.28;55.21
38452;BME280;24231;52.514;13.438;2023-01-20T02:52:54;100633.41;;;4.87;56.34
38452;BME280;24231;52.514;13.438;2023-01-20T02:55:28;100629.41;;;6.07;52.58
38452;BME280;24231;52.514;13.438;2023-01-20T02:58:01;100632.69;;;5.79;53.36
38452;BME280;24231;52.514;13.438;2023-01-20T03:00:33;100635.42;;;5.85;53.56
38452;BME280;24231;52.514;13.438;2023-01-20T03:03:06;100637.73;;;4.21;57.75
38452;BME280;24231;52.514;13.438;2023-01-20T03:05:39;100637.59;;;3.84;59.71
38452;BME280;24231;52.514;13.438;2023-01-20T03:08:09;100633.59;;;4.35;58.35
38452;BME280;24231;52.514;13.438;2023-01-20T03:10:39;100633.87;;;4.71;57.03
38452;BME280;24231;52.514;13.438;2023-01-20T03:13:12;100636.24;;;4.75;57.46
38452;BME280;24231;52.514;13.438;2023-01-20T03:15:50;100639.37;;;4.97;55.88
38452;BME280;24231;52.514;13.438;2023-01-20T03:18:17;100643.45;;;5.45;54.71
38452;BME280;24231;52.514;13.438;2023-01-20T03:20:44;100647.85;;;4.94;56.13
38452;BME280;24231;52.514;13.438;2023-01-20T03:23:12;100651.67;;;4.60;57.74
38452;BME280;24231;52.514;13.438;2023-01-20T03:25:40;100651.27;;;4.92;56.64
38452;BME280;24231;52.514;13.438;2023-01-20T03:28:07;100651.50;;;4.10;57.88
38452;BME280;24231;52.514;13.438;2023-01-20T03:30:35;100654.92;;;4.90;56.21
38452;BME280;24231;52.514;13.438;2023-01-20T03:33:03;100656.69;;;4.60;57.32
38452;BME280;24231;52.514;13.438;2023-01-20T03:35:30;100662.80;;;4.87;56.54
38452;BME280;24231;52.514;13.438;2023-01-20T03:37:58;100664.72;;;4.49;58.48
38452;BME280;24231;52.514;13.438;2023-01-20T03:40:29;100675.58;;;3.03;62.91
38452;BME280;24231;52.514;13.438;2023-01-20T03:43:00;100677.96;;;3.71;59.99
38452;BME280;24231;52.514;13.438;2023-01-20T03:45:39;100679.39;;;3.73;61.09
38452;BME280;24231;52.514;13.438;2023-01-20T03:48:13;100679.92;;;3.60;61.61
38452;BME280;24231;52.514;13.438;2023-01-20T03:50:49;100676.47;;;4.12;59.54
38452;BME280;24231;52.514;13.438;2023-01-20T03:53:28;100679.21;;;4.12;59.67
38452;BME280;24231;52.514;13.438;2023-01-20T03:56:01;100684.91;;;3.27;61.31
38452;BME280;24231;52.514;13.438;2023-01-20T03:58:33;100683.26;;;4.29;59.63
38452;BME280;24231;52.514;13.438;2023-01-20T04:01:04;100682.86;;;4.65;57.29
38452;BME280;24231;52.514;13.438;2023-01-20T04:03:37;100687.18;;;4.87;56.89
38452;BME280;24231;52.514;13.438;2023-01-20T04:06:08;100690.79;;;4.86;55.92
38452;BME280;24231;52.514;13.438;2023-01-20T04:08:44;100694.27;;;4.37;58.25
38452;BME280;24231;52.514;13.438;2023-01-20T04:11:13;100700.62;;;2.45;64.41
38452;BME280;24231;52.514;13.438;2023-01-20T04:13:40;100702.61;;;2.81;63.15
38452;BME280;24231;52.514;13.438;2023-01-20T04:16:10;100706.69;;;3.44;60.56
38452;BME280;24231;52.514;13.438;2023-01-20T04:18:41;100705.79;;;4.06;59.33
38452;BME280;24231;52.514;13.438;2023-01-20T04:21:13;100709.63;;;3.49;61.05
38452;BME280;24231;52.514;13.438;2023-01-20T04:23:48;100711.76;;;3.23;62.73
38452;BME280;24231;52.514;13.438;2023-01-20T04:26:19;100710.18;;;4.69;57.29
38452;BME280;24231;52.514;13.438;2023-01-20T04:28:46;100711.02;;;4.92;56.43
38452;BME280;24231;52.514;13.438;2023-01-20T04:31:13;100713.09;;;4.98;56.29
38452;BME280;24231;52.514;13.438;2023-01-20T04:33:41;100712.36;;;5.52;54.54
38452;BME280;24231;52.514;13.438;2023-01-20T04:36:08;100710.50;;;5.29;55.09
38452;BME280;24231;52.514;13.438;2023-01-20T04:38:35;100711.71;;;5.66;54.34
38452;BME280;24231;52.514;13.438;2023-01-20T04:41:03;100719.09;;;4.49;57.85
38452;BME280;24231;52.514;13.438;2023-01-20T04:43:30;100717.35;;;4.81;56.89
38452;BME280;24231;52.514;13.438;2023-01-20T04:45:58;100721.55;;;4.46;57.70
38452;BME280;24231;52.514;13.438;2023-01-20T04:48:24;100732.69;;;4.05;58.65
38452;BME280;24231;52.514;13.438;2023-01-20T04:50:52;100726.69;;;5.00;56.32
38452;BME280;24231;52.514;13.438;2023-01-20T04:53:20;100729.78;;;4.55;57.58
38452;BME280;24231;52.514;13.438;2023-01-20T04:55:47;100732.24;;;4.44;58.58
38452;BME280;24231;52.514;13.438;2023-01-20T04:58:13;100733.84;;;4.88;56.95
38452;BME280;24231;52.514;13.438;2023-01-20T05:00:40;100738.98;;;5.19;56.06
38452;BME280;24231;52.514;13.438;2023-01-20T05:03:07;100742.56;;;4.13;58.73
38452;BME280;24231;52.514;13.438;2023-01-20T05:05:35;100738.62;;;4.45;57.93
38452;BME280;24231;52.514;13.438;2023-01-20T05:08:02;100737.46;;;4.73;57.46
38452;BME280;24231;52.514;13.438;2023-01-20T05:10:30;100743.06;;;5.10;56.40
38452;BME280;24231;52.514;13.438;2023-01-20T05:12:57;100743.36;;;4.87;56.78
38452;BME280;24231;52.514;13.438;2023-01-20T05:15:24;100761.46;;;1.58;67.93
38452;BME280;24231;52.514;13.438;2023-01-20T05:17:51;100765.07;;;2.28;68.06
38452;BME280;24231;52.514;13.438;2023-01-20T05:20:19;100770.53;;;3.79;61.81
38452;BME280;24231;52.514;13.438;2023-01-20T05:22:46;100775.69;;;3.48;62.32
38452;BME280;24231;52.514;13.438;2023-01-20T05:25:13;100777.50;;;3.27;64.29
38452;BME280;24231;52.514;13.438;2023-01-20T05:27:41;100781.83;;;2.60;65.01
38452;BME280;24231;52.514;13.438;2023-01-20T05:30:09;100785.27;;;3.88;61.82
38452;BME280;24231;52.514;13.438;2023-01-20T05:32:37;100784.84;;;3.14;63.37
38452;BME280;24231;52.514;13.438;2023-01-20T05:35:05;100790.54;;;4.51;59.51
38452;BME280;24231;52.514;13.438;2023-01-20T05:37:32;100794.38;;;3.92;61.15
38452;BME280;24231;52.514;13.438;2023-01-20T05:40:00;100800.23;;;3.93;59.96
38452;BME280;24231;52.514;13.438;2023-01-20T05:42:27;100803.28;;;4.08;59.62
38452;BME280;24231;52.514;13.438;2023-01-20T05:44:54;100808.67;;;3.47;61.21
38452;BME280;24231;52.514;13.438;2023-01-20T05:47:21;100813.09;;;3.96;59.98
38452;BME280;24231;52.514;13.438;2023-01-20T05:49:49;100812.42;;;4.70;57.95
38452;BME280;24231;52.514;13.438;2023-01-20T05:52:16;100819.81;;;2.43;65.58
38452;BME280;24231;52.514;13.438;2023-01-20T05:54:44;100820.75;;;2.68;64.76
38452;BME280;24231;52.514;13.438;2023-01-20T05:57:10;100817.32;;;2.93;64.32
38452;BME280;24231;52.514;13.438;2023-01-20T05:59:37;100813.81;;;4.88;57.56
38452;BME280;24231;52.514;13.438;2023-01-20T06:02:05;100817.12;;;5.02;56.81
38452;BME280;24231;52.514;13.438;2023-01-20T06:04:31;100826.75;;;4.28;58.92
38452;BME280;24231;52.514;13.438;2023-01-20T06:06:58;100833.82;;;3.69;59.99
38452;BME280;24231;52.514;13.438;2023-01-20T06:09:25;100839.33;;;4.34;58.63
38452;BME280;24231;52.514;13.438;2023-01-20T06:11:53;100848.14;;;2.31;65.09
38452;BME280;24231;52.514;13.438;2023-01-20T06:14:20;100847.23;;;2.97;63.40
38452;BME280;24231;52.514;13.438;2023-01-20T06:16:56;100852.69;;;2.82;63.38
38452;BME280;24231;52.514;13.438;2023-01-20T06:19:24;100852.24;;;3.62;61.60
38452;BME280;24231;52.514;13.438;2023-01-20T06:21:51;100858.15;;;2.68;64.86
38452;BME280;24231;52.514;13.438;2023-01-20T06:24:18;100863.55;;;2.13;66.77
38452;BME280;24231;52.514;13.438;2023-01-20T06:26:45;100866.48;;;2.71;64.34
38452;BME280;24231;52.514;13.438;2023-01-20T06:29:15;100872.30;;;2.36;65.56
38452;BME280;24231;52.514;13.438;2023-01-20T06:31:47;100871.85;;;2.84;64.64
38452;BME280;24231;52.514;13.438;2023-01-20T06:34:15;100876.42;;;3.61;61.31
38452;BME280;24231;52.514;13.438;2023-01-20T06:36:42;100887.53;;;2.40;64.85
38452;BME280;24231;52.514;13.438;2023-01-20T06:39:08;100886.87;;;3.13;61.19
38452;BME280;24231;52.514;13.438;2023-01-20T06:41:36;100891.91;;;3.33;61.59
38452;BME280;24231;52.514;13.438;2023-01-20T06:44:03;100897.95;;;3.09;62.32
38452;BME280;24231;52.514;13.438;2023-01-20T06:46:30;100902.56;;;4.45;58.18
38452;BME280;24231;52.514;13.438;2023-01-20T06:48:58;100912.72;;;4.28;57.91
38452;BME280;24231;52.514;13.438;2023-01-20T06:51:27;100917.36;;;4.29;57.18
38452;BME280;24231;52.514;13.438;2023-01-20T06:53:55;100918.13;;;4.67;57.68
38452;BME280;24231;52.514;13.438;2023-01-20T06:56:22;100922.13;;;4.22;57.81
38452;BME280;24231;52.514;13.438;2023-01-20T06:58:54;100924.49;;;3.53;60.92
38452;BME280;24231;52.514;13.438;2023-01-20T07:01:26;100932.28;;;2.48;64.84
38452;BME280;24231;52.514;13.438;2023-01-20T07:03:54;100939.55;;;1.54;68.05
38452;BME280;24231;52.514;13.438;2023-01-20T07:06:26;100938.41;;;2.58;64.27
38452;BME280;24231;52.514;13.438;2023-01-20T07:08:54;100936.55;;;4.34;58.45
38452;BME280;24231;52.514;13.438;2023-01-20T07:11:21;100940.53;;;4.15;58.40
38452;BME280;24231;52.514;13.438;2023-01-20T07:13:49;100946.96;;;4.32;57.57
38452;BME280;24231;52.514;13.438;2023-01-20T07:16:16;100954.30;;;2.72;63.59
38452;BME280;24231;52.514;13.438;2023-01-20T07:18:48;100959.46;;;3.71;61.04
38452;BME280;24231;52.514;13.438;2023-01-20T07:21:15;100962.02;;;4.50;57.42
38452;BME280;24231;52.514;13.438;2023-01-20T07:23:43;100974.05;;;2.62;62.57
38452;BME280;24231;52.514;13.438;2023-01-20T07:26:11;100973.52;;;4.33;57.72
38452;BME280;24231;52.514;13.438;2023-01-20T07:28:44;100986.66;;;1.47;67.82
38452;BME280;24231;52.514;13.438;2023-01-20T07:31:14;100983.26;;;2.71;63.93
38452;BME280;24231;52.514;13.438;2023-01-20T07:33:41;100980.55;;;3.95;59.35
38452;BME280;24231;52.514;13.438;2023-01-20T07:36:14;100979.69;;;4.47;57.45
38452;BME280;24231;52.514;13.438;2023-01-20T07:38:42;100982.43;;;4.26;57.52
38452;BME280;24231;52.514;13.438;2023-01-20T07:41:12;100991.97;;;2.94;61.12
38452;BME280;24231;52.514;13.438;2023-01-20T07:43:40;100989.71;;;4.53;57.14
38452;BME280;24231;52.514;13.438;2023-01-20T07:46:07;100992.33;;;4.64;56.70
38452;BME280;24231;52.514;13.438;2023-01-20T07:48:35;100992.35;;;4.60;56.31
38452;BME280;24231;52.514;13.438;2023-01-20T07:51:05;100998.79;;;2.24;64.02
38452;BME280;24231;52.514;13.438;2023-01-20T07:53:44;101005.48;;;1.97;65.73
38452;BME280;24231;52.514;13.438;2023-01-20T07:56:14;101009.91;;;2.54;64.49
38452;BME280;24231;52.514;13.438;2023-01-20T07:58:42;101008.62;;;2.26;64.79
38452;BME280;24231;52.514;13.438;2023-01-20T08:01:11;101018.50;;;1.38;68.38
38452;BME280;24231;52.514;13.438;2023-01-20T08:03:38;101018.27;;;1.23;68.94
38452;BME280;24231;52.514;13.438;2023-01-20T08:06:07;101015.73;;;2.25;66.37
38452;BME280;24231;52.514;13.438;2023-01-20T08:08:35;101024.32;;;1.07;69.65
38452;BME280;24231;52.514;13.438;2023-01-20T08:11:04;101026.53;;;1.55;68.12
38452;BME280;24231;52.514;13.438;2023-01-20T08:13:33;101019.54;;;3.74;60.12
38452;BME280;24231;52.514;13.438;2023-01-20T08:16:02;101016.75;;;4.45;57.10
38452;BME280;24231;52.514;13.438;2023-01-20T08:18:30;101025.11;;;3.44;60.28
38452;BME280;24231;52.514;13.438;2023-01-20T08:20:58;101029.10;;;4.13;58.17
38452;BME280;24231;52.514;13.438;2023-01-20T08:23:26;101031.25;;;3.88;57.86
38452;BME280;24231;52.514;13.438;2023-01-20T08:25:57;101037.46;;;4.48;56.99
38452;BME280;24231;52.514;13.438;2023-01-20T08:28:24;101037.48;;;4.57;56.35
38452;BME280;24231;52.514;13.438;2023-01-20T08:30:52;101038.99;;;5.00;54.84
38452;BME280;24231;52.514;13.438;2023-01-20T08:33:19;101040.94;;;4.30;56.89
38452;BME280;24231;52.514;13.438;2023-01-20T08:35:46;101043.14;;;4.13;58.06
38452;BME280;24231;52.514;13.438;2023-01-20T08:38:13;101046.22;;;4.52;56.36
38452;BME280;24231;52.514;13.438;2023-01-20T08:40:41;101051.28;;;3.57;58.57
38452;BME280;24231;52.514;13.438;2023-01-20T08:43:08;101052.81;;;4.25;57.32
38452;BME280;24231;52.514;13.438;2023-01-20T08:45:36;101052.62;;;4.27;56.47
38452;BME280;24231;52.514;13.438;2023-01-20T08:48:03;101054.02;;;4.72;55.39
38452;BME280;24231;52.514;13.438;2023-01-20T08:50:31;101055.14;;;4.75;55.34
38452;BME280;24231;52.514;13.438;2023-01-20T08:52:58;101063.67;;;2.71;61.35
38452;BME280;24231;52.514;13.438;2023-01-20T08:55:25;101065.81;;;2.98;61.00
38452;BME280;24231;52.514;13.438;2023-01-20T08:57:52;101065.92;;;4.33;57.00
38452;BME280;24231;52.514;13.438;2023-01-20T09:00:20;101070.05;;;4.47;56.70
38452;BME280;24231;52.514;13.438;2023-01-20T09:02:47;101075.70;;;3.67;59.45
38452;BME280;24231;52.514;13.438;2023-01-20T09:05:15;101078.72;;;3.34;61.23
38452;BME280;24231;52.514;13.438;2023-01-20T09:07:43;101080.68;;;3.58;61.06
38452;BME280;24231;52.514;13.438;2023-01-20T09:10:11;101086.77;;;4.35;57.99
38452;BME280;24231;52.514;13.438;2023-01-20T09:12:38;101087.30;;;4.71;57.00
38452;BME280;24231;52.514;13.438;2023-01-20T09:15:07;101095.89;;;4.03;58.65
38452;BME280;24231;52.514;13.438;2023-01-20T09:17:34;101101.03;;;4.34;57.74
38452;BME280;24231;52.514;13.438;2023-01-20T09:20:02;101106.27;;;4.16;57.88
38452;BME280;24231;52.514;13.438;2023-01-20T09:22:29;101105.06;;;4.58;56.80
38452;BME280;24231;52.514;13.438;2023-01-20T09:24:56;101105.83;;;4.66;55.85
38452;BME280;24231;52.514;13.438;2023-01-20T09:27:23;101111.18;;;3.59;59.21
38452;BME280;24231;52.514;13.438;2023-01-20T09:29:50;101120.35;;;4.10;58.27
38452;BME280;24231;52.514;13.438;2023-01-20T09:32:25;101124.55;;;4.20;57.04
38452;BME280;24231;52.514;13.438;2023-01-20T09:34:53;101120.49;;;4.68;56.10
38452;BME280;24231;52.514;13.438;2023-01-20T09:37:20;101128.13;;;4.07;57.05
38452;BME280;24231;52.514;13.438;2023-01-20T09:39:48;101128.74;;;4.51;56.21
38452;BME280;24231;52.514;13.438;2023-01-20T09:42:23;101137.49;;;4.18;57.08
38452;BME280;24231;52.514;13.438;2023-01-20T09:44:56;101138.49;;;4.89;55.08
38452;BME280;24231;52.514;13.438;2023-01-20T09:47:30;101142.43;;;3.48;58.07
38452;BME280;24231;52.514;13.438;2023-01-20T09:50:22;101138.93;;;4.94;55.40
38452;BME280;24231;52.514;13.438;2023-01-20T09:52:54;101142.44;;;5.05;54.42
38452;BME280;24231;52.514;13.438;2023-01-20T09:55:41;101143.87;;;4.96;54.52
38452;BME280;24231;52.514;13.438;2023-01-20T09:58:19;101147.27;;;4.63;55.26
38452;BME280;24231;52.514;13.438;2023-01-20T10:00:51;101145.40;;;4.72;55.16
38452;BME280;24231;52.514;13.438;2023-01-20T10:03:24;101147.19;;;4.48;55.82
38452;BME280;24231;52.514;13.438;2023-01-20T10:05:56;101141.01;;;5.05;54.63
38452;BME280;24231;52.514;13.438;2023-01-20T10:08:28;101150.99;;;4.60;55.12
38452;BME280;24231;52.514;13.438;2023-01-20T10:11:03;101155.99;;;4.79;55.12
38452;BME280;24231;52.514;13.438;2023-01-20T10:13:37;101162.87;;;4.65;55.49
38452;BME280;24231;52.514;13.438;2023-01-20T10:16:09;101167.46;;;4.42;56.65
38452;BME280;24231;52.514;13.438;2023-01-20T10:18:41;101168.88;;;4.15;57.91
38452;BME280;24231;52.514;13.438;2023-01-20T10:21:16;101168.79;;;4.28;57.41
38452;BME280;24231;52.514;13.438;2023-01-20T10:23:49;101168.35;;;4.20;56.91
38452;BME280;24231;52.514;13.438;2023-01-20T10:26:23;101166.57;;;4.36;56.89
38452;BME280;24231;52.514;13.438;2023-01-20T10:28:56;101163.91;;;3.73;58.28
38452;BME280;24231;52.514;13.438;2023-01-20T10:31:27;101170.91;;;2.04;64.28
38452;BME280;24231;52.514;13.438;2023-01-20T10:33:58;101169.36;;;2.55;63.51
38452;BME280;24231;52.514;13.438;2023-01-20T10:36:33;101162.92;;;3.65;60.25
38452;BME280;24231;52.514;13.438;2023-01-20T10:39:04;101166.44;;;3.95;58.93
38452;BME280;24231;52.514;13.438;2023-01-20T10:41:39;101171.24;;;4.12;57.99
38452;BME280;24231;52.514;13.438;2023-01-20T10:44:11;101170.83;;;4.46;57.19
38452;BME280;24231;52.514;13.438;2023-01-20T10:46:52;101172.61;;;4.44;56.72
38452;BME280;24231;52.514;13.438;2023-01-20T10:49:59;101174.61;;;3.03;60.75
38452;BME280;24231;52.514;13.438;2023-01-20T10:52:43;101171.33;;;4.52;56.52
38452;BME280;24231;52.514;13.438;2023-01-20T10:55:20;101173.32;;;4.79;55.54
38452;BME280;24231;52.514;13.438;2023-01-20T10:57:55;101173.47;;;4.98;55.25
38452;BME280;24231;52.514;13.438;2023-01-20T11:00:27;101182.25;;;4.72;55.64
38452;BME280;24231;52.514;13.438;2023-01-20T11:02:58;101184.12;;;4.64;55.94
38452;BME280;24231;52.514;13.438;2023-01-20T11:05:28;101186.18;;;2.89;61.83
38452;BME280;24231;52.514;13.438;2023-01-20T11:07:58;101180.37;;;4.60;55.82
38452;BME280;24231;52.514;13.438;2023-01-20T11:10:28;101177.50;;;4.61;56.15
38452;BME280;24231;52.514;13.438;2023-01-20T11:12:57;101179.84;;;4.79;55.98
38452;BME280;24231;52.514;13.438;2023-01-20T11:15:28;101182.42;;;4.27;57.30
38452;BME280;24231;52.514;13.438;2023-01-20T11:18:29;101186.31;;;4.32;56.91
38452;BME280;24231;52.514;13.438;2023-01-20T11:20:59;101186.03;;;4.12;57.41
38452;BME280;24231;52.514;13.438;2023-01-20T11:23:35;101187.17;;;4.25;57.58
38452;BME280;24231;52.514;13.438;2023-01-20T11:26:05;101184.78;;;3.57;59.58
38452;BME280;24231;52.514;13.438;2023-01-20T11:28:42;101190.53;;;4.13;58.62
38452;BME280;24231;52.514;13.438;2023-01-20T11:31:11;101189.02;;;4.36;57.20
38452;BME280;24231;52.514;13.438;2023-01-20T11:33:39;101189.82;;;4.73;55.63
38452;BME280;24231;52.514;13.438;2023-01-20T11:36:16;101189.49;;;4.43;55.98
38452;BME280;24231;52.514;13.438;2023-01-20T11:38:45;101189.99;;;4.41;56.61
38452;BME280;24231;52.514;13.438;2023-01-20T11:41:17;101190.01;;;4.71;55.60
38452;BME280;24231;52.514;13.438;2023-01-20T11:43:45;101192.56;;;4.48;56.33
38452;BME280;24231;52.514;13.438;2023-01-20T11:46:21;101193.20;;;3.54;59.47
38452;BME280;24231;52.514;13.438;2023-01-20T11:48:49;101196.02;;;3.67;58.45
38452;BME280;24231;52.514;13.438;2023-01-20T11:51:20;101200.92;;;3.43;60.27
38452;BME280;24231;52.514;13.438;2023-01-20T11:53:48;101201.39;;;3.12;60.87
38452;BME280;24231;52.514;13.438;2023-01-20T11:56:17;101199.32;;;3.38;60.76
38452;BME280;24231;52.514;13.438;2023-01-20T11:58:50;101198.08;;;3.42;60.57
38452;BME280;24231;52.514;13.438;2023-01-20T12:01:22;101198.28;;;3.54;59.84
38452;BME280;24231;52.514;13.438;2023-01-20T12:04:40;101198.17;;;3.87;58.64
38452;BME280;24231;52.514;13.438;2023-01-20T12:07:21;101207.99;;;3.48;60.19
38452;BME280;24231;52.514;13.438;2023-01-20T12:09:53;101210.60;;;3.39;61.47
38452;BME280;24231;52.514;13.438;2023-01-20T12:12:32;101214.37;;;3.92;58.75
38452;BME280;24231;52.514;13.438;2023-01-20T12:15:08;101218.25;;;4.38;57.53
38452;BME280;24231;52.514;13.438;2023-01-20T12:17:43;101223.15;;;4.31;57.43
38452;BME280;24231;52.514;13.438;2023-01-20T12:20:17;101224.21;;;4.88;55.14
38452;BME280;24231;52.514;13.438;2023-01-20T12:22:59;101225.21;;;5.19;53.94
38452;BME280;24231;52.514;13.438;2023-01-20T12:25:29;101224.58;;;5.34;53.49
38452;BME280;24231;52.514;13.438;2023-01-20T12:28:02;101228.94;;;5.39;52.98
38452;BME280;24231;52.514;13.438;2023-01-20T12:30:51;101234.08;;;4.79;54.38
38452;BME280;24231;52.514;13.438;2023-01-20T12:33:23;101241.44;;;4.93;54.24
38452;BME280;24231;52.514;13.438;2023-01-20T12:36:09;101247.42;;;5.12;53.45
38452;BME280;24231;52.514;13.438;2023-01-20T12:38:46;101251.63;;;4.39;56.08
38452;BME280;24231;52.514;13.438;2023-01-20T12:41:33;101256.36;;;4.54;55.80
38452;BME280;24231;52.514;13.438;2023-01-20T12:44:14;101268.21;;;3.36;59.42
38452;BME280;24231;52.514;13.438;2023-01-20T12:46:48;101263.83;;;4.72;54.81
38452;BME280;24231;52.514;13.438;2023-01-20T12:49:29;101266.31;;;5.05;53.81
38452;BME280;24231;52.514;13.438;2023-01-20T12:52:16;101267.13;;;5.34;52.33
38452;BME280;24231;52.514;13.438;2023-01-20T12:55:04;101272.92;;;5.19;52.80
38452;BME280;24231;52.514;13.438;2023-01-20T12:57:50;101274.28;;;5.24;52.12
38452;BME280;24231;52.514;13.438;2023-01-20T13:00:38;101278.77;;;4.95;54.39
38452;BME280;24231;52.514;13.438;2023-01-20T13:05:44;101284.13;;;4.41;55.50
38452;BME280;24231;52.514;13.438;2023-01-20T13:08:20;101289.25;;;5.29;52.94
38452;BME280;24231;52.514;13.438;2023-01-20T13:10:56;101293.30;;;5.20;53.80
38452;BME280;24231;52.514;13.438;2023-01-20T13:13:37;101297.21;;;4.41;55.06
38452;BME280;24231;52.514;13.438;2023-01-20T13:16:13;101297.60;;;5.34;53.51